createdAt,value
2022-09-12T00:01:31.455Z,99.90
2022-09-12T00:04:01.700Z,99.90
2022-09-12T00:06:32.008Z,99.90
2022-09-12T00:09:01.783Z,99.90
2022-09-12T00:11:30.771Z,99.90
2022-09-12T00:14:00.595Z,99.90
2022-09-12T00:16:30.219Z,99.90
2022-09-12T00:18:59.209Z,99.90
2022-09-12T00:21:28.358Z,99.90
2022-09-12T00:23:57.106Z,99.90
2022-09-12T00:26:25.637Z,99.90
2022-09-12T00:28:54.254Z,99.90
2022-09-12T00:31:26.164Z,99.90
2022-09-12T00:33:56.405Z,99.90
2022-09-12T00:36:25.859Z,99.90
2022-09-12T00:38:55.659Z,99.90
2022-09-12T00:41:29.136Z,99.90
2022-09-12T00:43:59.704Z,99.90
2022-09-12T00:46:32.588Z,99.90
2022-09-12T00:49:04.659Z,99.90
2022-09-12T00:51:35.016Z,99.90
2022-09-12T00:54:07.907Z,99.90
2022-09-12T00:56:37.076Z,99.90
2022-09-12T00:59:08.104Z,99.90
2022-09-12T01:01:36.996Z,99.90
2022-09-12T01:04:05.834Z,99.90
2022-09-12T01:06:37.124Z,99.90
2022-09-12T01:09:06.270Z,99.90
2022-09-12T01:11:37.715Z,99.90
2022-09-12T01:14:06.491Z,99.90
2022-09-12T01:16:39.166Z,99.90
2022-09-12T01:19:20.293Z,99.90
2022-09-12T01:21:56.911Z,99.90
2022-09-12T01:24:28.362Z,99.90
2022-09-12T01:27:15.311Z,99.90
2022-09-12T01:30:01.908Z,99.90
2022-09-12T01:32:33.184Z,99.90
2022-09-12T01:35:01.775Z,99.90
2022-09-12T01:37:35.856Z,99.90
2022-09-12T01:40:17.769Z,99.90
2022-09-12T01:42:48.175Z,99.90
2022-09-12T01:45:35.389Z,99.80
2022-09-12T01:48:10.146Z,99.60
2022-09-12T01:50:45.684Z,99.30
2022-09-12T01:53:23.124Z,98.10
2022-09-12T01:56:01.680Z,98.80
2022-09-12T01:58:49.370Z,98.40
2022-09-12T02:01:26.032Z,97.60
2022-09-12T02:04:04.807Z,97.30
2022-09-12T02:06:45.355Z,97.60
2022-09-12T02:09:18.225Z,95.60
2022-09-12T02:11:47.795Z,95.30
2022-09-12T02:14:25.536Z,95.90
2022-09-12T02:16:56.231Z,95.50
2022-09-12T02:19:31.181Z,94.80
2022-09-12T02:22:00.899Z,94.60
2022-09-12T02:24:33.198Z,94.40
2022-09-12T02:27:04.936Z,94.80
2022-09-12T02:29:33.527Z,95.30
2022-09-12T02:32:07.193Z,95.40
2022-09-12T02:34:41.050Z,95.50
2022-09-12T02:37:15.125Z,95.40
2022-09-12T02:39:45.461Z,95.20
2022-09-12T02:42:14.708Z,95.20
2022-09-12T02:44:43.874Z,95.00
2022-09-12T02:47:19.871Z,95.40
2022-09-12T02:49:49.479Z,95.40
2022-09-12T02:52:18.310Z,95.20
2022-09-12T02:54:47.083Z,95.70
2022-09-12T02:57:22.595Z,95.60
2022-09-12T02:59:52.716Z,95.60
2022-09-12T03:02:29.284Z,95.70
2022-09-12T03:05:18.571Z,95.70
2022-09-12T03:07:47.314Z,96.30
2022-09-12T03:10:21.586Z,96.20
2022-09-12T03:12:52.847Z,96.10
2022-09-12T03:15:39.716Z,95.80
2022-09-12T03:18:14.993Z,95.60
2022-09-12T03:20:43.751Z,94.80
2022-09-12T03:23:16.986Z,94.00
2022-09-12T03:25:48.402Z,94.50
2022-09-12T03:28:17.823Z,92.10
2022-09-12T03:30:47.630Z,92.00
2022-09-12T03:33:17.489Z,92.50
2022-09-12T03:35:46.568Z,92.20
2022-09-12T03:38:15.211Z,91.10
2022-09-12T03:40:44.099Z,92.60
2022-09-12T03:43:12.774Z,92.30
2022-09-12T03:45:41.538Z,91.90
2022-09-12T03:48:10.193Z,89.50
2022-09-12T03:50:38.791Z,89.90
2022-09-12T03:53:07.357Z,90.20
2022-09-12T03:55:36.093Z,91.00
2022-09-12T03:58:04.737Z,91.50
2022-09-12T04:00:33.281Z,87.70
2022-09-12T04:03:01.945Z,90.60
2022-09-12T04:05:30.567Z,90.20
2022-09-12T04:07:59.185Z,88.60
2022-09-12T04:10:27.854Z,86.40
2022-09-12T04:12:56.408Z,88.80
2022-09-12T04:15:25.172Z,83.20
2022-09-12T04:17:54.013Z,85.10
2022-09-12T04:20:22.899Z,84.00
2022-09-12T04:22:51.666Z,84.10
2022-09-12T04:25:24.035Z,83.90
2022-09-12T04:27:52.822Z,84.90
2022-09-12T04:30:21.683Z,84.00
2022-09-12T04:32:50.537Z,80.20
2022-09-12T04:35:19.332Z,81.80
2022-09-12T04:37:48.100Z,78.40
2022-09-12T04:40:16.917Z,81.60
2022-09-12T04:42:46.641Z,81.60
2022-09-12T04:45:18.130Z,80.50
2022-09-12T04:47:48.035Z,79.00
2022-09-12T04:50:16.785Z,81.40
2022-09-12T04:52:45.645Z,81.90
2022-09-12T04:55:14.363Z,78.40
2022-09-12T04:57:43.123Z,76.70
2022-09-12T05:00:18.003Z,75.60
2022-09-12T05:02:46.704Z,75.10
2022-09-12T05:05:15.437Z,78.60
2022-09-12T05:07:44.159Z,76.90
2022-09-12T05:10:13.995Z,76.10
2022-09-12T05:12:42.964Z,77.10
2022-09-12T05:15:11.915Z,76.30
2022-09-12T05:17:40.700Z,77.50
2022-09-12T05:20:10.790Z,77.90
2022-09-12T05:22:39.547Z,74.80
2022-09-12T05:25:08.590Z,76.50
2022-09-12T05:27:37.290Z,76.40
2022-09-12T05:30:06.685Z,77.30
2022-09-12T05:32:35.677Z,75.40
2022-09-12T05:35:04.476Z,75.80
2022-09-12T05:37:33.280Z,77.30
2022-09-12T05:40:02.707Z,75.80
2022-09-12T05:42:31.715Z,77.10
2022-09-12T05:45:00.532Z,77.80
2022-09-12T05:47:29.279Z,79.90
2022-09-12T05:49:58.954Z,79.10
2022-09-12T05:52:27.842Z,77.60
2022-09-12T05:54:56.663Z,78.20
2022-09-12T05:57:25.561Z,75.90
2022-09-12T05:59:54.424Z,78.50
2022-09-12T06:02:23.459Z,77.20
2022-09-12T06:04:52.151Z,77.20
2022-09-12T06:07:20.951Z,77.20
2022-09-12T06:09:49.634Z,77.70
2022-09-12T06:12:18.360Z,77.80
2022-09-12T06:14:47.903Z,78.10
2022-09-12T06:17:16.664Z,78.00
2022-09-12T06:19:45.376Z,77.40
2022-09-12T06:22:15.278Z,79.10
2022-09-12T06:24:44.064Z,79.80
2022-09-12T06:27:12.914Z,81.00
2022-09-12T06:29:41.701Z,82.10
2022-09-12T06:32:12.915Z,83.70
2022-09-12T06:34:41.624Z,85.30
2022-09-12T06:37:10.491Z,86.10
2022-09-12T06:39:39.743Z,86.80
2022-09-12T06:42:08.951Z,87.00
2022-09-12T06:44:37.735Z,87.70
2022-09-12T06:47:06.560Z,88.30
2022-09-12T06:49:35.378Z,89.90
2022-09-12T06:52:04.270Z,90.00
2022-09-12T06:54:33.021Z,91.20
2022-09-12T06:57:01.739Z,91.10
2022-09-12T06:59:30.519Z,90.90
2022-09-12T07:01:59.313Z,90.80
2022-09-12T07:04:28.078Z,91.00
2022-09-12T07:06:56.804Z,91.20
2022-09-12T07:09:25.563Z,92.00
2022-09-12T07:11:54.277Z,92.00
2022-09-12T07:14:23.133Z,91.90
2022-09-12T07:16:52.049Z,91.80
2022-09-12T07:19:20.829Z,92.40
2022-09-12T07:21:55.268Z,92.30
2022-09-12T07:24:26.675Z,92.10
2022-09-12T07:26:55.448Z,92.60
2022-09-12T07:29:39.284Z,92.30
2022-09-12T07:32:08.136Z,91.70
2022-09-12T07:34:37.165Z,91.60
2022-09-12T07:37:06.110Z,93.10
2022-09-12T07:39:35.009Z,93.70
2022-09-12T07:42:03.977Z,92.50
2022-09-12T07:44:32.807Z,92.60
2022-09-12T07:47:02.052Z,94.10
2022-09-12T07:49:31.842Z,94.10
2022-09-12T07:52:00.715Z,94.40
2022-09-12T07:54:29.511Z,95.10
2022-09-12T07:56:58.127Z,95.30
2022-09-12T07:59:48.809Z,94.90
2022-09-12T08:02:17.479Z,95.40
2022-09-12T08:04:46.479Z,94.80
2022-09-12T08:07:14.986Z,94.90
2022-09-12T08:09:43.795Z,94.80
2022-09-12T08:12:16.188Z,94.60
2022-09-12T08:14:45.296Z,94.50
2022-09-12T08:17:14.007Z,94.70
2022-09-12T08:19:42.577Z,94.30
2022-09-12T08:22:11.298Z,94.00
2022-09-12T08:24:40.825Z,93.70
2022-09-12T08:27:10.411Z,93.50
2022-09-12T08:29:38.969Z,93.30
2022-09-12T08:32:07.579Z,93.30
2022-09-12T08:34:36.226Z,93.20
2022-09-12T08:37:05.303Z,93.50
2022-09-12T08:39:34.431Z,93.50
2022-09-12T08:42:04.352Z,93.50
2022-09-12T08:44:44.984Z,93.30
2022-09-12T08:47:32.712Z,93.40
2022-09-12T08:50:13.055Z,93.60
2022-09-12T08:52:48.137Z,93.40
2022-09-12T08:55:33.409Z,93.70
2022-09-12T08:58:02.887Z,93.70
2022-09-12T09:00:39.255Z,93.80
2022-09-12T09:03:19.029Z,93.80
2022-09-12T09:05:58.177Z,93.80
2022-09-12T09:08:45.828Z,94.00
2022-09-12T09:11:20.231Z,94.00
2022-09-12T09:14:18.620Z,94.10
2022-09-12T09:16:51.213Z,93.90
2022-09-12T09:19:42.117Z,93.90
2022-09-12T09:22:23.183Z,93.80
2022-09-12T09:24:58.161Z,93.70
2022-09-12T09:27:45.913Z,93.60
2022-09-12T09:30:25.840Z,93.60
2022-09-12T09:32:59.884Z,93.70
2022-09-12T09:35:50.440Z,93.60
2022-09-12T09:38:31.558Z,93.50
2022-09-12T09:41:05.703Z,93.50
2022-09-12T09:46:17.849Z,94.20
2022-09-12T09:48:51.344Z,94.10
2022-09-12T09:51:34.430Z,94.00
2022-09-12T09:54:23.404Z,93.80
2022-09-12T09:56:52.628Z,94.30
2022-09-12T09:59:29.455Z,93.90
2022-09-12T10:02:05.260Z,94.10
2022-09-12T10:04:39.347Z,94.30
2022-09-12T10:07:18.908Z,94.40
2022-09-12T10:10:06.005Z,94.30
2022-09-12T10:12:34.810Z,94.70
2022-09-12T10:15:04.201Z,94.40
2022-09-12T10:17:34.778Z,94.50
2022-09-12T10:20:20.572Z,94.60
2022-09-12T10:22:50.493Z,94.80
2022-09-12T10:25:20.489Z,94.60
2022-09-12T10:27:56.450Z,94.60
2022-09-12T10:30:29.271Z,94.50
2022-09-12T10:33:00.831Z,94.60
2022-09-12T10:35:34.661Z,94.60
2022-09-12T10:38:04.646Z,94.50
2022-09-12T10:40:37.588Z,94.60
2022-09-12T10:43:19.142Z,95.00
2022-09-12T10:45:47.804Z,94.90
2022-09-12T10:48:33.370Z,95.40
2022-09-12T10:51:02.781Z,95.70
2022-09-12T10:53:44.186Z,95.70
2022-09-12T10:56:14.922Z,95.80
2022-09-12T10:59:01.779Z,96.00
2022-09-12T11:01:42.992Z,96.30
2022-09-12T11:04:11.694Z,96.40
2022-09-12T11:06:45.320Z,96.50
2022-09-12T11:09:32.434Z,96.70
2022-09-12T11:12:21.119Z,96.60
2022-09-12T11:14:58.597Z,96.70
2022-09-12T11:17:35.591Z,96.70
2022-09-12T11:20:04.239Z,96.50
2022-09-12T11:22:38.173Z,96.20
2022-09-12T11:25:09.847Z,96.10
2022-09-12T11:27:44.158Z,96.00
2022-09-12T11:30:14.207Z,96.20
2022-09-12T11:33:06.872Z,96.90
2022-09-12T11:35:36.629Z,97.00
2022-09-12T11:38:18.814Z,97.50
2022-09-12T11:40:50.314Z,97.50
2022-09-12T11:43:37.638Z,97.60
2022-09-12T11:46:12.304Z,97.70
2022-09-12T11:48:48.552Z,98.20
2022-09-12T11:51:22.139Z,97.90
2022-09-12T11:53:59.531Z,98.00
2022-09-12T11:56:28.352Z,97.80
2022-09-12T11:59:03.093Z,97.60
2022-09-12T12:01:43.941Z,97.60
2022-09-12T12:04:18.043Z,97.40
2022-09-12T12:07:04.796Z,97.50
2022-09-12T12:09:35.080Z,97.20
2022-09-12T12:12:08.007Z,97.50
2022-09-12T12:14:43.683Z,97.50
2022-09-12T12:17:19.584Z,98.00
2022-09-12T12:19:48.815Z,98.10
2022-09-12T12:22:23.747Z,98.20
2022-09-12T12:25:09.315Z,98.10
2022-09-12T12:27:46.949Z,98.30
2022-09-12T12:30:34.652Z,98.20
2022-09-12T12:33:14.237Z,97.60
2022-09-12T12:35:44.588Z,98.00
2022-09-12T12:38:31.721Z,98.10
2022-09-12T12:41:18.280Z,97.40
2022-09-12T12:43:50.614Z,97.80
2022-09-12T12:46:21.089Z,98.20
2022-09-12T12:48:52.853Z,98.30
2022-09-12T12:51:36.757Z,97.90
2022-09-12T12:54:09.853Z,98.00
2022-09-12T12:56:42.359Z,98.40
2022-09-12T12:59:22.919Z,98.00
2022-09-12T13:01:55.334Z,98.30
2022-09-12T13:04:26.516Z,98.40
2022-09-12T13:06:57.861Z,99.00
2022-09-12T13:09:26.394Z,98.30
2022-09-12T13:12:09.314Z,98.30
2022-09-12T13:14:49.754Z,98.50
2022-09-12T13:17:24.384Z,98.90
2022-09-12T13:20:16.894Z,99.00
2022-09-12T13:22:44.971Z,98.50
2022-09-12T13:25:22.985Z,98.20
2022-09-12T13:28:07.347Z,98.30
2022-09-12T13:30:37.521Z,98.80
2022-09-12T13:33:19.005Z,98.60
2022-09-12T13:36:06.008Z,98.60
2022-09-12T13:38:43.411Z,98.60
2022-09-12T13:41:22.713Z,98.70
2022-09-12T13:43:51.339Z,98.60
2022-09-12T13:46:23.982Z,98.10
2022-09-12T13:48:52.696Z,98.10
2022-09-12T13:51:30.452Z,98.40
2022-09-12T13:54:01.283Z,98.00
2022-09-12T13:56:30.048Z,97.70
2022-09-12T13:58:59.751Z,97.60
2022-09-12T14:01:41.848Z,98.00
2022-09-12T14:04:35.974Z,98.00
2022-09-12T14:07:11.280Z,98.30
2022-09-12T14:09:41.259Z,98.80
2022-09-12T14:12:26.427Z,99.40
2022-09-12T14:14:55.155Z,99.40
2022-09-12T14:17:34.244Z,99.40
2022-09-12T14:20:04.936Z,99.50
2022-09-12T14:22:34.372Z,99.60
2022-09-12T14:25:03.232Z,99.70
2022-09-12T14:27:38.500Z,99.70
2022-09-12T14:30:10.291Z,99.80
2022-09-12T14:32:38.852Z,99.80
2022-09-12T14:35:13.255Z,99.80
2022-09-12T14:37:41.896Z,99.70
2022-09-12T14:40:23.447Z,99.20
2022-09-12T14:42:55.988Z,98.80
2022-09-12T14:45:33.195Z,99.00
2022-09-12T14:48:01.775Z,98.80
2022-09-12T14:50:33.141Z,98.70
2022-09-12T14:53:09.107Z,99.10
2022-09-12T14:55:44.273Z,99.40
2022-09-12T14:58:17.268Z,99.50
2022-09-12T15:01:03.055Z,99.20
2022-09-12T15:03:34.760Z,99.00
2022-09-12T15:06:04.935Z,99.20
2022-09-12T15:08:33.837Z,98.80
2022-09-12T15:11:02.476Z,98.80
2022-09-12T15:13:40.271Z,98.90
2022-09-12T15:16:10.700Z,99.20
2022-09-12T15:18:39.308Z,99.20
2022-09-12T15:21:08.932Z,99.20
2022-09-12T15:23:43.932Z,99.10
2022-09-12T15:26:15.067Z,99.20
2022-09-12T15:28:43.856Z,99.10
2022-09-12T15:31:31.943Z,99.30
2022-09-12T15:34:01.866Z,99.10
2022-09-12T15:36:30.694Z,99.20
2022-09-12T15:38:59.501Z,99.00
2022-09-12T15:41:31.449Z,98.80
2022-09-12T15:44:00.191Z,98.60
2022-09-12T15:46:28.797Z,98.60
2022-09-12T15:48:57.412Z,98.50
2022-09-12T15:51:25.949Z,98.90
2022-09-12T15:53:54.527Z,99.10
2022-09-12T15:56:23.663Z,99.20
2022-09-12T15:58:59.367Z,99.20
2022-09-12T16:01:29.437Z,99.10
2022-09-12T16:03:58.526Z,99.20
2022-09-12T16:06:27.092Z,99.00
2022-09-12T16:08:55.791Z,98.70
2022-09-12T16:11:27.067Z,98.80
2022-09-12T16:13:56.229Z,98.90
2022-09-12T16:16:24.862Z,98.80
2022-09-12T16:18:53.472Z,98.90
2022-09-12T16:21:22.048Z,98.90
2022-09-12T16:23:50.611Z,99.10
2022-09-12T16:26:19.507Z,99.10
2022-09-12T16:28:48.282Z,99.00
2022-09-12T16:31:17.072Z,99.10
2022-09-12T16:33:45.695Z,99.10
2022-09-12T16:36:15.548Z,99.00
2022-09-12T16:38:45.088Z,99.10
2022-09-12T16:41:13.774Z,99.20
2022-09-12T16:43:44.003Z,99.30
2022-09-12T16:46:13.716Z,99.40
2022-09-12T16:48:49.585Z,99.40
2022-09-12T16:51:24.897Z,99.40
2022-09-12T16:53:53.707Z,99.20
2022-09-12T16:56:22.699Z,99.00
2022-09-12T16:58:51.735Z,99.10
2022-09-12T17:01:21.735Z,99.00
2022-09-12T17:03:54.366Z,99.10
2022-09-12T17:06:23.140Z,99.10
2022-09-12T17:08:52.843Z,99.20
2022-09-12T17:11:22.844Z,99.20
2022-09-12T17:14:10.691Z,99.30
2022-09-12T17:16:40.819Z,99.30
2022-09-12T17:19:09.832Z,99.30
2022-09-12T17:21:38.792Z,99.50
2022-09-12T17:24:07.611Z,99.60
2022-09-12T17:26:36.378Z,99.80
2022-09-12T17:29:05.081Z,99.70
2022-09-12T17:31:33.838Z,99.40
2022-09-12T17:34:03.048Z,99.30
2022-09-12T17:36:33.124Z,99.50
2022-09-12T17:39:03.166Z,99.70
2022-09-12T17:41:33.058Z,99.90
2022-09-12T17:44:03.641Z,99.90
2022-09-12T17:46:35.947Z,99.90
2022-09-12T17:49:06.264Z,99.90
2022-09-12T17:51:35.071Z,99.90
2022-09-12T17:54:09.431Z,99.90
2022-09-12T17:56:38.280Z,99.90
2022-09-12T17:59:07.531Z,99.90
2022-09-12T18:01:54.293Z,99.90
2022-09-12T18:04:22.925Z,99.90
2022-09-12T18:06:51.515Z,99.90
2022-09-12T18:09:22.181Z,99.90
2022-09-12T18:11:51.099Z,99.90
2022-09-12T18:14:19.856Z,99.90
2022-09-12T18:16:49.035Z,99.90
2022-09-12T18:19:17.868Z,99.90
2022-09-12T18:21:46.563Z,99.90
2022-09-12T18:24:15.152Z,99.90
2022-09-12T18:26:44.884Z,99.90
2022-09-12T18:29:13.780Z,99.90
2022-09-12T18:31:42.328Z,99.90
2022-09-12T18:34:14.744Z,99.90
2022-09-12T18:36:44.059Z,99.90
2022-09-12T18:39:13.405Z,99.90
2022-09-12T18:41:42.067Z,99.90
2022-09-12T18:44:12.782Z,99.90
2022-09-12T18:46:41.737Z,99.90
2022-09-12T18:49:10.580Z,99.90
2022-09-12T18:51:41.212Z,99.90
2022-09-12T18:54:13.324Z,99.90
2022-09-12T18:56:44.709Z,99.90
2022-09-12T18:59:16.454Z,99.90
2022-09-12T19:01:45.139Z,99.90
2022-09-12T19:04:14.838Z,99.90
2022-09-12T19:06:44.995Z,99.90
2022-09-12T19:09:15.083Z,99.90
2022-09-12T19:11:50.144Z,99.90
2022-09-12T19:14:19.890Z,99.90
2022-09-12T19:16:48.367Z,99.90
2022-09-12T19:19:17.058Z,99.90
2022-09-12T19:21:46.011Z,99.90
2022-09-12T19:24:15.565Z,99.90
2022-09-12T19:26:44.219Z,99.90
2022-09-12T19:29:13.531Z,99.90
2022-09-12T19:31:42.063Z,99.90
2022-09-12T19:34:11.753Z,99.90
2022-09-12T19:36:45.427Z,99.90
2022-09-12T19:39:14.750Z,99.90
2022-09-12T19:41:43.725Z,99.90
2022-09-12T19:44:12.773Z,99.90
2022-09-12T19:46:41.609Z,99.90
2022-09-12T19:49:11.209Z,99.90
2022-09-12T19:51:39.831Z,99.90
2022-09-12T19:54:08.884Z,99.90
2022-09-12T19:56:37.363Z,99.90
2022-09-12T19:59:05.863Z,99.90
2022-09-12T20:01:35.943Z,99.90
2022-09-12T20:04:05.022Z,99.90
2022-09-12T20:06:33.898Z,99.90
2022-09-12T20:09:02.478Z,99.90
2022-09-12T20:11:31.028Z,99.90
2022-09-12T20:13:59.544Z,99.90
2022-09-12T20:16:30.552Z,99.90
2022-09-12T20:19:00.910Z,99.90
2022-09-12T20:21:33.928Z,99.90
2022-09-12T20:24:12.388Z,99.90
2022-09-12T20:26:41.335Z,99.90
2022-09-12T20:29:10.490Z,99.90
2022-09-12T20:31:39.933Z,99.90
2022-09-12T20:34:09.233Z,99.90
2022-09-12T20:36:37.763Z,99.90
2022-09-12T20:39:06.348Z,99.90
2022-09-12T20:41:37.233Z,99.90
2022-09-12T20:44:05.778Z,99.90
2022-09-12T20:46:34.693Z,99.90
2022-09-12T20:49:03.581Z,99.90
2022-09-12T20:51:32.204Z,99.90
2022-09-12T20:54:02.231Z,99.90
2022-09-12T20:56:32.660Z,99.90
2022-09-12T20:59:01.240Z,99.90
2022-09-12T21:01:30.874Z,99.90
2022-09-12T21:04:00.346Z,99.90
2022-09-12T21:06:29.228Z,99.90
2022-09-12T21:09:01.515Z,99.90
2022-09-12T21:11:30.347Z,99.90
2022-09-12T21:13:59.096Z,99.90
2022-09-12T21:16:27.704Z,99.90
2022-09-12T21:18:57.390Z,99.90
2022-09-12T21:21:26.325Z,99.90
2022-09-12T21:23:56.636Z,99.90
2022-09-12T21:26:25.201Z,99.90
2022-09-12T21:28:53.720Z,99.90
2022-09-12T21:31:22.398Z,99.90
2022-09-12T21:33:51.844Z,99.90
2022-09-12T21:36:20.387Z,99.90
2022-09-12T21:38:48.974Z,99.90
2022-09-12T21:41:18.092Z,99.90
2022-09-12T21:43:46.779Z,99.90
2022-09-12T21:46:15.391Z,99.90
2022-09-12T21:48:43.959Z,99.90
2022-09-12T21:51:12.453Z,99.90
2022-09-12T21:53:40.955Z,99.90
2022-09-12T21:56:09.997Z,99.90
2022-09-12T21:58:38.967Z,99.90
2022-09-12T22:01:09.821Z,99.90
2022-09-12T22:03:38.358Z,99.90
2022-09-12T22:06:07.527Z,99.90
2022-09-12T22:08:36.777Z,99.90
2022-09-12T22:11:10.500Z,99.90
2022-09-12T22:13:40.369Z,99.90
2022-09-12T22:16:09.376Z,99.90
2022-09-12T22:18:39.267Z,99.90
2022-09-12T22:21:09.795Z,99.90
2022-09-12T22:23:56.221Z,99.90
2022-09-12T22:26:26.471Z,99.90
2022-09-12T22:28:55.595Z,99.90
2022-09-12T22:31:24.316Z,99.90
2022-09-12T22:33:53.080Z,99.90
2022-09-12T22:36:21.586Z,99.90
2022-09-12T22:38:50.090Z,99.90
2022-09-12T22:41:18.651Z,99.90
2022-09-12T22:43:47.225Z,99.90
2022-09-12T22:46:15.779Z,99.90
2022-09-12T22:48:44.544Z,99.90
2022-09-12T22:51:13.128Z,99.90
2022-09-12T22:53:41.707Z,99.90
2022-09-12T22:56:10.721Z,99.90
2022-09-12T22:58:39.386Z,99.90
2022-09-12T23:01:08.065Z,99.90
2022-09-12T23:03:37.583Z,99.90
2022-09-12T23:06:06.672Z,99.90
2022-09-12T23:08:36.014Z,99.90
2022-09-12T23:11:06.915Z,99.90
2022-09-12T23:13:35.548Z,99.90
2022-09-12T23:16:05.719Z,99.90
2022-09-12T23:18:37.542Z,99.90
2022-09-12T23:21:07.139Z,99.90
2022-09-12T23:23:36.324Z,99.90
2022-09-12T23:26:07.870Z,99.90
2022-09-12T23:28:36.702Z,99.90
2022-09-12T23:31:05.632Z,99.90
2022-09-12T23:33:34.791Z,99.90
2022-09-12T23:36:05.000Z,99.90
2022-09-12T23:38:34.260Z,99.90
2022-09-12T23:41:04.433Z,99.90
2022-09-12T23:43:33.341Z,99.90
2022-09-12T23:46:01.973Z,99.90
2022-09-12T23:48:30.623Z,99.90
2022-09-12T23:50:59.224Z,99.90
2022-09-12T23:53:28.161Z,99.90
2022-09-12T23:55:56.808Z,99.90
2022-09-12T23:58:25.324Z,99.90
